sensor_id;sensor_type;location;lat;lon;timestamp;P1;durP1;ratioP1;P2;durP2;ratioP2
38581;SDS011;24349;53.720;10.014;2022-10-16T07:11:04;7.10;;;3.33;;
38581;SDS011;24349;53.720;10.014;2022-10-16T07:13:35;7.20;;;2.97;;
38581;SDS011;24349;53.720;10.014;2022-10-16T07:16:05;8.98;;;2.90;;
38581;SDS011;24349;53.720;10.014;2022-10-16T07:18:34;8.63;;;3.58;;
38581;SDS011;24349;53.720;10.014;2022-10-16T07:23:31;8.00;;;3.70;;
38581;SDS011;24349;53.720;10.014;2022-10-16T07:25:57;6.82;;;3.33;;
38581;SDS011;24349;53.720;10.014;2022-10-16T07:28:22;7.95;;;3.20;;
38581;SDS011;24349;53.720;10.014;2022-10-16T07:30:50;7.60;;;3.42;;
38581;SDS011;24349;53.720;10.014;2022-10-16T07:33:49;7.78;;;3.17;;
38581;SDS011;24349;53.720;10.014;2022-10-16T07:36:42;7.47;;;3.20;;
38581;SDS011;24349;53.720;10.014;2022-10-16T07:39:07;6.30;;;3.40;;
38581;SDS011;24349;53.720;10.014;2022-10-16T07:41:33;6.53;;;3.60;;
38581;SDS011;24349;53.720;10.014;2022-10-16T07:44:02;6.32;;;3.28;;
38581;SDS011;24349;53.720;10.014;2022-10-16T07:46:28;6.82;;;3.15;;
38581;SDS011;24349;53.720;10.014;2022-10-16T07:48:54;7.28;;;3.30;;
38581;SDS011;24349;53.720;10.014;2022-10-16T07:51:21;6.85;;;3.72;;
38581;SDS011;24349;53.720;10.014;2022-10-16T07:53:48;6.38;;;3.17;;
38581;SDS011;24349;53.720;10.014;2022-10-16T07:56:15;6.05;;;3.10;;
38581;SDS011;24349;53.720;10.014;2022-10-16T07:58:42;7.47;;;3.40;;
38581;SDS011;24349;53.720;10.014;2022-10-16T08:01:09;6.72;;;3.20;;
38581;SDS011;24349;53.720;10.014;2022-10-16T08:03:36;8.02;;;3.45;;
38581;SDS011;24349;53.720;10.014;2022-10-16T08:06:02;7.15;;;3.63;;
38581;SDS011;24349;53.720;10.014;2022-10-16T08:08:29;7.22;;;3.60;;
38581;SDS011;24349;53.720;10.014;2022-10-16T08:10:54;8.13;;;3.83;;
38581;SDS011;24349;53.720;10.014;2022-10-16T08:13:20;8.40;;;3.42;;
38581;SDS011;24349;53.720;10.014;2022-10-16T08:15:46;7.45;;;3.70;;
38581;SDS011;24349;53.720;10.014;2022-10-16T08:18:12;6.25;;;3.58;;
38581;SDS011;24349;53.720;10.014;2022-10-16T08:20:39;8.35;;;3.88;;
38581;SDS011;24349;53.720;10.014;2022-10-16T08:23:06;7.80;;;4.40;;
38581;SDS011;24349;53.720;10.014;2022-10-16T08:25:34;7.03;;;3.60;;
38581;SDS011;24349;53.720;10.014;2022-10-16T08:28:02;7.18;;;3.38;;
38581;SDS011;24349;53.720;10.014;2022-10-16T08:30:29;7.22;;;3.60;;
38581;SDS011;24349;53.720;10.014;2022-10-16T08:32:54;6.97;;;3.60;;
38581;SDS011;24349;53.720;10.014;2022-10-16T08:35:20;7.35;;;3.80;;
38581;SDS011;24349;53.720;10.014;2022-10-16T08:37:46;7.35;;;3.50;;
38581;SDS011;24349;53.720;10.014;2022-10-16T08:40:20;7.43;;;4.20;;
38581;SDS011;24349;53.720;10.014;2022-10-16T08:43:16;7.47;;;3.50;;
38581;SDS011;24349;53.720;10.014;2022-10-16T08:51:24;6.20;;;3.40;;
38581;SDS011;24349;53.720;10.014;2022-10-16T08:53:58;6.47;;;3.30;;
38581;SDS011;24349;53.720;10.014;2022-10-16T08:56:28;6.60;;;3.60;;
38581;SDS011;24349;53.720;10.014;2022-10-16T08:58:54;6.57;;;3.13;;
38581;SDS011;24349;53.720;10.014;2022-10-16T09:01:21;6.85;;;3.10;;
38581;SDS011;24349;53.720;10.014;2022-10-16T09:17:44;6.30;;;3.15;;
38581;SDS011;24349;53.720;10.014;2022-10-16T09:25:37;9.75;;;3.17;;
38581;SDS011;24349;53.720;10.014;2022-10-16T09:28:07;5.50;;;2.38;;
38581;SDS011;24349;53.720;10.014;2022-10-16T09:30:33;6.13;;;2.70;;
38581;SDS011;24349;53.720;10.014;2022-10-16T09:32:58;7.07;;;2.80;;
38581;SDS011;24349;53.720;10.014;2022-10-16T09:35:46;8.30;;;2.42;;
38581;SDS011;24349;53.720;10.014;2022-10-16T09:38:22;6.20;;;2.25;;
38581;SDS011;24349;53.720;10.014;2022-10-16T09:40:56;6.25;;;2.35;;
38581;SDS011;24349;53.720;10.014;2022-10-16T09:46:05;6.65;;;2.15;;
38581;SDS011;24349;53.720;10.014;2022-10-16T09:48:50;6.65;;;2.22;;
38581;SDS011;24349;53.720;10.014;2022-10-16T09:51:26;6.93;;;2.35;;
38581;SDS011;24349;53.720;10.014;2022-10-16T09:53:57;5.15;;;1.95;;
38581;SDS011;24349;53.720;10.014;2022-10-16T09:58:55;5.63;;;2.17;;
38581;SDS011;24349;53.720;10.014;2022-10-16T10:01:26;7.13;;;2.30;;
38581;SDS011;24349;53.720;10.014;2022-10-16T10:04:10;6.88;;;2.35;;
38581;SDS011;24349;53.720;10.014;2022-10-16T10:06:44;6.75;;;2.08;;
38581;SDS011;24349;53.720;10.014;2022-10-16T10:09:16;5.75;;;2.00;;
38581;SDS011;24349;53.720;10.014;2022-10-16T10:11:52;7.10;;;2.63;;
38581;SDS011;24349;53.720;10.014;2022-10-16T10:17:12;6.00;;;2.10;;
38581;SDS011;24349;53.720;10.014;2022-10-16T10:22:40;5.28;;;2.10;;
38581;SDS011;24349;53.720;10.014;2022-10-16T10:30:05;5.90;;;1.58;;
38581;SDS011;24349;53.720;10.014;2022-10-16T10:35:31;7.85;;;1.95;;
38581;SDS011;24349;53.720;10.014;2022-10-16T10:38:21;6.03;;;2.17;;
38581;SDS011;24349;53.720;10.014;2022-10-16T10:43:48;5.63;;;2.03;;
38581;SDS011;24349;53.720;10.014;2022-10-16T10:46:35;5.38;;;1.77;;
38581;SDS011;24349;53.720;10.014;2022-10-16T11:15:53;7.03;;;1.83;;
38581;SDS011;24349;53.720;10.014;2022-10-16T11:18:46;6.07;;;1.50;;
38581;SDS011;24349;53.720;10.014;2022-10-16T11:21:18;7.10;;;2.05;;
38581;SDS011;24349;53.720;10.014;2022-10-16T11:23:51;6.93;;;1.90;;
38581;SDS011;24349;53.720;10.014;2022-10-16T11:26:28;8.43;;;2.00;;
38581;SDS011;24349;53.720;10.014;2022-10-16T11:28:58;6.82;;;2.20;;
38581;SDS011;24349;53.720;10.014;2022-10-16T11:36:44;5.90;;;1.63;;
38581;SDS011;24349;53.720;10.014;2022-10-16T11:39:25;6.50;;;1.50;;
38581;SDS011;24349;53.720;10.014;2022-10-16T11:47:58;8.77;;;2.10;;
38581;SDS011;24349;53.720;10.014;2022-10-16T11:53:11;5.15;;;1.48;;
38581;SDS011;24349;53.720;10.014;2022-10-16T11:55:45;4.45;;;1.38;;
38581;SDS011;24349;53.720;10.014;2022-10-16T11:58:20;5.57;;;1.45;;
38581;SDS011;24349;53.720;10.014;2022-10-16T12:01:00;6.50;;;1.48;;
38581;SDS011;24349;53.720;10.014;2022-10-16T12:09:00;5.25;;;1.50;;
38581;SDS011;24349;53.720;10.014;2022-10-16T12:16:32;3.97;;;1.40;;
38581;SDS011;24349;53.720;10.014;2022-10-16T12:19:12;6.53;;;1.50;;
38581;SDS011;24349;53.720;10.014;2022-10-16T12:21:39;7.10;;;1.75;;
38581;SDS011;24349;53.720;10.014;2022-10-16T12:24:05;4.57;;;1.42;;
38581;SDS011;24349;53.720;10.014;2022-10-16T12:26:32;6.63;;;1.70;;
38581;SDS011;24349;53.720;10.014;2022-10-16T12:31:42;5.18;;;1.48;;
38581;SDS011;24349;53.720;10.014;2022-10-16T12:34:14;5.47;;;1.30;;
38581;SDS011;24349;53.720;10.014;2022-10-16T12:37:18;6.32;;;1.60;;
38581;SDS011;24349;53.720;10.014;2022-10-16T12:39:48;8.02;;;2.15;;
38581;SDS011;24349;53.720;10.014;2022-10-16T12:42:22;6.97;;;1.65;;
38581;SDS011;24349;53.720;10.014;2022-10-16T12:44:56;6.18;;;1.70;;
38581;SDS011;24349;53.720;10.014;2022-10-16T12:47:23;5.88;;;1.92;;
38581;SDS011;24349;53.720;10.014;2022-10-16T12:49:53;8.45;;;1.90;;
38581;SDS011;24349;53.720;10.014;2022-10-16T12:52:23;7.05;;;1.80;;
38581;SDS011;24349;53.720;10.014;2022-10-16T12:54:55;6.95;;;1.50;;
38581;SDS011;24349;53.720;10.014;2022-10-16T12:57:39;6.45;;;1.73;;
38581;SDS011;24349;53.720;10.014;2022-10-16T13:00:45;6.18;;;1.92;;
38581;SDS011;24349;53.720;10.014;2022-10-16T13:17:40;7.68;;;1.63;;
38581;SDS011;24349;53.720;10.014;2022-10-16T13:28:46;7.53;;;1.70;;
38581;SDS011;24349;53.720;10.014;2022-10-16T13:31:14;5.82;;;1.63;;
38581;SDS011;24349;53.720;10.014;2022-10-16T13:33:45;5.30;;;1.60;;
38581;SDS011;24349;53.720;10.014;2022-10-16T13:36:19;6.70;;;1.70;;
38581;SDS011;24349;53.720;10.014;2022-10-16T13:41:37;5.22;;;1.35;;
38581;SDS011;24349;53.720;10.014;2022-10-16T13:44:03;6.03;;;1.60;;
38581;SDS011;24349;53.720;10.014;2022-10-16T13:46:30;7.03;;;1.98;;
38581;SDS011;24349;53.720;10.014;2022-10-16T13:49:11;7.38;;;2.03;;
38581;SDS011;24349;53.720;10.014;2022-10-16T13:51:38;7.45;;;1.92;;
38581;SDS011;24349;53.720;10.014;2022-10-16T13:54:04;5.50;;;1.65;;
38581;SDS011;24349;53.720;10.014;2022-10-16T13:56:30;8.30;;;1.83;;
38581;SDS011;24349;53.720;10.014;2022-10-16T13:59:01;8.02;;;1.50;;
38581;SDS011;24349;53.720;10.014;2022-10-16T14:01:31;9.95;;;1.92;;
38581;SDS011;24349;53.720;10.014;2022-10-16T14:04:02;6.82;;;1.65;;
38581;SDS011;24349;53.720;10.014;2022-10-16T14:06:30;7.10;;;1.52;;
38581;SDS011;24349;53.720;10.014;2022-10-16T14:09:07;6.50;;;1.38;;
38581;SDS011;24349;53.720;10.014;2022-10-16T14:11:50;6.03;;;1.50;;
38581;SDS011;24349;53.720;10.014;2022-10-16T14:14:21;5.78;;;1.52;;
38581;SDS011;24349;53.720;10.014;2022-10-16T14:16:48;9.07;;;1.95;;
38581;SDS011;24349;53.720;10.014;2022-10-16T14:19:18;5.50;;;1.70;;
38581;SDS011;24349;53.720;10.014;2022-10-16T14:21:51;7.28;;;1.70;;
38581;SDS011;24349;53.720;10.014;2022-10-16T14:26:56;9.02;;;1.98;;
38581;SDS011;24349;53.720;10.014;2022-10-16T14:29:23;8.88;;;1.88;;
38581;SDS011;24349;53.720;10.014;2022-10-16T14:31:57;8.85;;;1.70;;
38581;SDS011;24349;53.720;10.014;2022-10-16T14:34:34;7.65;;;1.73;;
38581;SDS011;24349;53.720;10.014;2022-10-16T14:37:24;6.50;;;1.63;;
38581;SDS011;24349;53.720;10.014;2022-10-16T14:39:51;7.18;;;1.60;;
38581;SDS011;24349;53.720;10.014;2022-10-16T14:42:18;6.28;;;1.73;;
38581;SDS011;24349;53.720;10.014;2022-10-16T14:44:48;7.68;;;1.98;;
38581;SDS011;24349;53.720;10.014;2022-10-16T14:47:18;5.38;;;1.50;;
38581;SDS011;24349;53.720;10.014;2022-10-16T14:49:48;5.78;;;1.67;;
38581;SDS011;24349;53.720;10.014;2022-10-16T14:52:14;7.18;;;1.73;;
38581;SDS011;24349;53.720;10.014;2022-10-16T14:54:40;7.97;;;1.65;;
38581;SDS011;24349;53.720;10.014;2022-10-16T14:57:14;5.57;;;1.65;;
38581;SDS011;24349;53.720;10.014;2022-10-16T14:59:43;9.55;;;2.35;;
38581;SDS011;24349;53.720;10.014;2022-10-16T15:04:45;8.32;;;1.77;;
38581;SDS011;24349;53.720;10.014;2022-10-16T15:07:11;8.00;;;1.92;;
38581;SDS011;24349;53.720;10.014;2022-10-16T15:09:36;7.28;;;1.60;;
38581;SDS011;24349;53.720;10.014;2022-10-16T15:12:02;5.75;;;1.60;;
38581;SDS011;24349;53.720;10.014;2022-10-16T15:14:28;6.45;;;1.60;;
38581;SDS011;24349;53.720;10.014;2022-10-16T15:16:53;4.25;;;1.42;;
38581;SDS011;24349;53.720;10.014;2022-10-16T15:19:19;4.38;;;1.58;;
38581;SDS011;24349;53.720;10.014;2022-10-16T15:21:45;6.63;;;1.58;;
38581;SDS011;24349;53.720;10.014;2022-10-16T15:24:11;6.88;;;1.73;;
38581;SDS011;24349;53.720;10.014;2022-10-16T15:26:38;6.07;;;1.63;;
38581;SDS011;24349;53.720;10.014;2022-10-16T15:29:04;6.63;;;1.83;;
38581;SDS011;24349;53.720;10.014;2022-10-16T15:31:30;8.30;;;1.90;;
38581;SDS011;24349;53.720;10.014;2022-10-16T15:33:56;7.13;;;1.80;;
38581;SDS011;24349;53.720;10.014;2022-10-16T15:36:30;9.13;;;2.00;;
38581;SDS011;24349;53.720;10.014;2022-10-16T15:39:18;6.05;;;1.60;;
38581;SDS011;24349;53.720;10.014;2022-10-16T15:41:45;7.13;;;1.67;;
38581;SDS011;24349;53.720;10.014;2022-10-16T15:44:16;7.97;;;2.00;;
38581;SDS011;24349;53.720;10.014;2022-10-16T15:46:42;9.95;;;2.05;;
38581;SDS011;24349;53.720;10.014;2022-10-16T15:49:08;7.75;;;1.90;;
38581;SDS011;24349;53.720;10.014;2022-10-16T15:51:37;7.82;;;1.85;;
38581;SDS011;24349;53.720;10.014;2022-10-16T15:54:04;9.48;;;2.60;;
38581;SDS011;24349;53.720;10.014;2022-10-16T15:56:30;6.65;;;2.20;;
38581;SDS011;24349;53.720;10.014;2022-10-16T15:58:58;7.03;;;1.77;;
38581;SDS011;24349;53.720;10.014;2022-10-16T16:01:25;8.13;;;2.05;;
38581;SDS011;24349;53.720;10.014;2022-10-16T16:03:52;7.75;;;1.70;;
38581;SDS011;24349;53.720;10.014;2022-10-16T16:06:19;7.70;;;2.15;;
38581;SDS011;24349;53.720;10.014;2022-10-16T16:09:06;8.65;;;2.10;;
38581;SDS011;24349;53.720;10.014;2022-10-16T16:22:53;10.50;;;2.25;;
38581;SDS011;24349;53.720;10.014;2022-10-16T16:29:19;4.90;;;1.50;;
38581;SDS011;24349;53.720;10.014;2022-10-16T16:31:44;7.18;;;1.98;;
38581;SDS011;24349;53.720;10.014;2022-10-16T16:34:17;5.32;;;1.70;;
38581;SDS011;24349;53.720;10.014;2022-10-16T16:36:44;6.07;;;1.60;;
38581;SDS011;24349;53.720;10.014;2022-10-16T16:39:09;5.85;;;1.88;;
38581;SDS011;24349;53.720;10.014;2022-10-16T16:41:40;6.63;;;2.03;;
38581;SDS011;24349;53.720;10.014;2022-10-16T16:54:45;6.90;;;2.13;;
38581;SDS011;24349;53.720;10.014;2022-10-16T16:57:28;6.38;;;2.05;;
38581;SDS011;24349;53.720;10.014;2022-10-16T17:00:18;10.68;;;2.65;;
38581;SDS011;24349;53.720;10.014;2022-10-16T17:02:50;11.82;;;3.50;;
38581;SDS011;24349;53.720;10.014;2022-10-16T17:05:20;7.70;;;2.70;;
38581;SDS011;24349;53.720;10.014;2022-10-16T17:07:52;10.68;;;3.15;;
38581;SDS011;24349;53.720;10.014;2022-10-16T17:10:19;9.52;;;2.70;;
38581;SDS011;24349;53.720;10.014;2022-10-16T17:12:48;9.40;;;2.90;;
38581;SDS011;24349;53.720;10.014;2022-10-16T17:15:23;10.02;;;3.20;;
38581;SDS011;24349;53.720;10.014;2022-10-16T17:18:28;12.25;;;4.13;;
38581;SDS011;24349;53.720;10.014;2022-10-16T17:21:02;7.40;;;3.63;;
38581;SDS011;24349;53.720;10.014;2022-10-16T17:23:31;9.40;;;4.03;;
38581;SDS011;24349;53.720;10.014;2022-10-16T17:26:14;7.50;;;3.45;;
38581;SDS011;24349;53.720;10.014;2022-10-16T17:29:05;10.15;;;3.63;;
38581;SDS011;24349;53.720;10.014;2022-10-16T17:34:06;9.13;;;3.17;;
38581;SDS011;24349;53.720;10.014;2022-10-16T17:36:37;9.25;;;3.58;;
38581;SDS011;24349;53.720;10.014;2022-10-16T17:39:10;7.50;;;3.67;;
38581;SDS011;24349;53.720;10.014;2022-10-16T17:42:02;12.15;;;4.70;;
38581;SDS011;24349;53.720;10.014;2022-10-16T17:45:01;13.57;;;4.97;;
38581;SDS011;24349;53.720;10.014;2022-10-16T17:47:50;10.75;;;5.13;;
38581;SDS011;24349;53.720;10.014;2022-10-16T17:50:24;12.60;;;5.28;;
38581;SDS011;24349;53.720;10.014;2022-10-16T17:52:52;10.90;;;4.60;;
38581;SDS011;24349;53.720;10.014;2022-10-16T17:55:22;10.10;;;4.30;;
38581;SDS011;24349;53.720;10.014;2022-10-16T17:58:09;12.02;;;5.47;;
38581;SDS011;24349;53.720;10.014;2022-10-16T18:00:35;9.30;;;4.43;;
38581;SDS011;24349;53.720;10.014;2022-10-16T18:03:02;9.80;;;2.75;;
38581;SDS011;24349;53.720;10.014;2022-10-16T18:05:29;8.60;;;3.85;;
38581;SDS011;24349;53.720;10.014;2022-10-16T18:07:57;9.52;;;4.07;;
38581;SDS011;24349;53.720;10.014;2022-10-16T18:38:00;11.63;;;5.78;;
38581;SDS011;24349;53.720;10.014;2022-10-16T18:41:06;12.65;;;6.55;;
38581;SDS011;24349;53.720;10.014;2022-10-16T18:47:01;10.95;;;6.60;;
38581;SDS011;24349;53.720;10.014;2022-10-16T18:52:46;11.23;;;4.45;;
38581;SDS011;24349;53.720;10.014;2022-10-16T18:55:39;8.73;;;3.67;;
38581;SDS011;24349;53.720;10.014;2022-10-16T18:58:32;10.02;;;3.22;;
38581;SDS011;24349;53.720;10.014;2022-10-16T19:01:08;8.60;;;4.10;;
38581;SDS011;24349;53.720;10.014;2022-10-16T19:04:06;9.65;;;4.13;;
38581;SDS011;24349;53.720;10.014;2022-10-16T19:06:41;9.90;;;4.10;;
38581;SDS011;24349;53.720;10.014;2022-10-16T19:37:53;8.98;;;4.25;;
38581;SDS011;24349;53.720;10.014;2022-10-16T19:40:23;7.78;;;3.58;;
38581;SDS011;24349;53.720;10.014;2022-10-16T19:43:38;8.32;;;3.90;;
38581;SDS011;24349;53.720;10.014;2022-10-16T20:07:07;6.97;;;2.97;;
38581;SDS011;24349;53.720;10.014;2022-10-16T20:09:37;6.55;;;2.50;;
38581;SDS011;24349;53.720;10.014;2022-10-16T20:16:04;7.70;;;2.95;;
38581;SDS011;24349;53.720;10.014;2022-10-16T20:18:36;6.00;;;2.63;;
38581;SDS011;24349;53.720;10.014;2022-10-16T20:21:26;5.65;;;2.53;;
38581;SDS011;24349;53.720;10.014;2022-10-16T20:34:57;10.07;;;3.13;;
38581;SDS011;24349;53.720;10.014;2022-10-16T20:37:24;9.52;;;3.45;;
38581;SDS011;24349;53.720;10.014;2022-10-16T20:39:54;9.05;;;3.95;;
38581;SDS011;24349;53.720;10.014;2022-10-16T20:43:10;6.75;;;3.08;;
38581;SDS011;24349;53.720;10.014;2022-10-16T20:45:44;13.20;;;3.40;;
38581;SDS011;24349;53.720;10.014;2022-10-16T20:48:27;10.00;;;3.13;;
38581;SDS011;24349;53.720;10.014;2022-10-16T20:54:09;7.57;;;2.30;;
38581;SDS011;24349;53.720;10.014;2022-10-16T20:56:49;11.77;;;3.45;;
38581;SDS011;24349;53.720;10.014;2022-10-16T20:59:28;5.97;;;2.33;;
38581;SDS011;24349;53.720;10.014;2022-10-16T21:02:09;10.13;;;2.50;;
38581;SDS011;24349;53.720;10.014;2022-10-16T21:04:40;6.72;;;2.60;;
38581;SDS011;24349;53.720;10.014;2022-10-16T21:09:46;6.35;;;2.55;;
38581;SDS011;24349;53.720;10.014;2022-10-16T21:13:05;6.93;;;2.45;;
38581;SDS011;24349;53.720;10.014;2022-10-16T21:15:44;7.75;;;2.30;;
38581;SDS011;24349;53.720;10.014;2022-10-16T21:18:20;9.77;;;2.50;;
38581;SDS011;24349;53.720;10.014;2022-10-16T21:21:28;5.90;;;2.42;;
38581;SDS011;24349;53.720;10.014;2022-10-16T21:27:39;9.52;;;2.58;;
38581;SDS011;24349;53.720;10.014;2022-10-16T21:30:21;8.75;;;2.63;;
38581;SDS011;24349;53.720;10.014;2022-10-16T21:33:05;6.80;;;2.33;;
38581;SDS011;24349;53.720;10.014;2022-10-16T21:35:42;7.30;;;2.60;;
38581;SDS011;24349;53.720;10.014;2022-10-16T21:38:10;5.43;;;2.33;;
38581;SDS011;24349;53.720;10.014;2022-10-16T21:41:00;5.85;;;2.25;;
38581;SDS011;24349;53.720;10.014;2022-10-16T21:43:38;8.18;;;2.60;;
38581;SDS011;24349;53.720;10.014;2022-10-16T21:46:05;9.63;;;2.88;;
38581;SDS011;24349;53.720;10.014;2022-10-16T21:48:47;9.70;;;2.60;;
38581;SDS011;24349;53.720;10.014;2022-10-16T21:51:18;6.78;;;2.78;;
38581;SDS011;24349;53.720;10.014;2022-10-16T21:54:01;9.00;;;2.17;;
38581;SDS011;24349;53.720;10.014;2022-10-16T21:56:28;11.07;;;3.30;;
38581;SDS011;24349;53.720;10.014;2022-10-16T21:58:55;12.32;;;3.25;;
38581;SDS011;24349;53.720;10.014;2022-10-16T22:01:29;9.15;;;3.33;;
38581;SDS011;24349;53.720;10.014;2022-10-16T22:03:57;9.02;;;3.20;;
38581;SDS011;24349;53.720;10.014;2022-10-16T22:06:43;8.02;;;3.35;;
38581;SDS011;24349;53.720;10.014;2022-10-16T22:09:21;11.40;;;3.50;;
38581;SDS011;24349;53.720;10.014;2022-10-16T22:11:52;11.50;;;3.15;;
38581;SDS011;24349;53.720;10.014;2022-10-16T22:14:19;8.45;;;3.22;;
38581;SDS011;24349;53.720;10.014;2022-10-16T22:16:57;6.13;;;2.60;;
38581;SDS011;24349;53.720;10.014;2022-10-16T22:19:23;7.85;;;2.97;;
38581;SDS011;24349;53.720;10.014;2022-10-16T22:21:49;5.40;;;2.15;;
38581;SDS011;24349;53.720;10.014;2022-10-16T22:24:21;8.00;;;2.90;;
38581;SDS011;24349;53.720;10.014;2022-10-16T22:26:47;9.27;;;2.83;;
38581;SDS011;24349;53.720;10.014;2022-10-16T22:29:14;9.68;;;2.88;;
38581;SDS011;24349;53.720;10.014;2022-10-16T22:31:44;7.97;;;2.72;;
38581;SDS011;24349;53.720;10.014;2022-10-16T22:34:21;5.82;;;2.33;;
38581;SDS011;24349;53.720;10.014;2022-10-16T22:36:53;9.98;;;2.72;;
38581;SDS011;24349;53.720;10.014;2022-10-16T22:39:19;9.13;;;3.03;;
38581;SDS011;24349;53.720;10.014;2022-10-16T22:41:45;9.43;;;3.88;;
38581;SDS011;24349;53.720;10.014;2022-10-16T22:44:15;11.25;;;4.30;;
38581;SDS011;24349;53.720;10.014;2022-10-16T22:46:53;10.75;;;3.15;;
38581;SDS011;24349;53.720;10.014;2022-10-16T22:49:20;9.10;;;3.28;;
38581;SDS011;24349;53.720;10.014;2022-10-16T22:51:46;8.35;;;3.10;;
38581;SDS011;24349;53.720;10.014;2022-10-16T22:54:36;9.90;;;2.92;;
38581;SDS011;24349;53.720;10.014;2022-10-16T22:57:02;7.20;;;3.00;;
38581;SDS011;24349;53.720;10.014;2022-10-16T22:59:39;12.25;;;3.95;;
38581;SDS011;24349;53.720;10.014;2022-10-16T23:02:05;9.35;;;2.85;;
38581;SDS011;24349;53.720;10.014;2022-10-16T23:04:32;8.70;;;3.13;;
38581;SDS011;24349;53.720;10.014;2022-10-16T23:09:47;6.18;;;2.83;;
38581;SDS011;24349;53.720;10.014;2022-10-16T23:12:13;10.27;;;3.70;;
38581;SDS011;24349;53.720;10.014;2022-10-16T23:14:51;9.48;;;3.20;;
38581;SDS011;24349;53.720;10.014;2022-10-16T23:17:35;8.82;;;3.33;;
38581;SDS011;24349;53.720;10.014;2022-10-16T23:20:04;10.35;;;3.60;;
38581;SDS011;24349;53.720;10.014;2022-10-16T23:22:30;8.07;;;3.78;;
38581;SDS011;24349;53.720;10.014;2022-10-16T23:24:59;11.77;;;3.78;;
38581;SDS011;24349;53.720;10.014;2022-10-16T23:27:29;10.38;;;4.47;;
38581;SDS011;24349;53.720;10.014;2022-10-16T23:30:02;10.35;;;3.72;;
38581;SDS011;24349;53.720;10.014;2022-10-16T23:32:39;7.68;;;3.28;;
38581;SDS011;24349;53.720;10.014;2022-10-16T23:35:06;10.10;;;3.60;;
38581;SDS011;24349;53.720;10.014;2022-10-16T23:37:37;9.13;;;3.90;;
38581;SDS011;24349;53.720;10.014;2022-10-16T23:40:04;11.63;;;3.80;;
38581;SDS011;24349;53.720;10.014;2022-10-16T23:42:30;10.80;;;4.30;;
38581;SDS011;24349;53.720;10.014;2022-10-16T23:44:57;10.82;;;4.18;;
38581;SDS011;24349;53.720;10.014;2022-10-16T23:47:27;9.90;;;4.10;;
38581;SDS011;24349;53.720;10.014;2022-10-16T23:50:01;10.10;;;3.50;;
38581;SDS011;24349;53.720;10.014;2022-10-16T23:53:02;11.07;;;3.25;;
38581;SDS011;24349;53.720;10.014;2022-10-16T23:55:36;9.57;;;3.55;;
38581;SDS011;24349;53.720;10.014;2022-10-16T23:58:04;7.40;;;3.25;;
